Cascabel, Arizona
Current Conditions -  °F | °C
As of 1:58 AM on Wednesday 26 Nov 2014 (Local Time) from KDMA Reporting Station
Clear Clear  
Wind Chill: 34°   Ceiling: Unl
Heat Index: 40°   Visibility: 10mi
Dew Point:   Wind: 8mph
Humidity: 23%   Direction: 150°SSE
Pressure: 30.31"   Gusts: NA
Location:  32.1865°N, 110.265°W
Report Text: KDMA 260858Z AUTO 15007KT 10SM CLR 04/M16 A3031 RMK AO2 SLP251 T00431156 58003 $
Loading
Personal Weather Stations






























Interactive Weather Map New forecast layout! Learn more

10-Day Weather Forecast

Advertisements
Track Severe Weather on mobile